Terminal Aerodrome Forecast
Issued by NWS

Home | Current Version | Previous Version | Text Only | Print | Product List | Glossary On
Versions: 1 2 3 4 5 6 7 8 9 10 11 12 13 14 15 16 17 18
000
FTUS41 KLWX 062329
TAFMTN
TAF
KMTN 062329Z 0700/0724 VRB04KT P6SM SCT250
     FM071600 23006KT P6SM SCT250
     FM072000 22007KT P6SM BKN090 BKN100
      AMD NOT SKED 0702/0712=

USA.gov is the U.S. government's official web portal to all federal, state and local government web resources and services.